BIF weather

Biggs Army Air Field (Fort Bliss)
Fort Bliss/El Paso, Texas, United States

Public forecast

Using degrees Fahrenheit for public forecast. Weather courtesy of forecast.io.

Current aviation weather report (METAR) for Biggs Army Air Field (Fort Bliss)

Retrieved 2019/12/09 08:58 UTC (59 minutes ago):

KBIF 090858Z AUTO 18003KT 8SM -RA OVC065 12/09 A2997 RMK AO2 RAB52 SLP106 P0000 60000 T01240091 55002

Aviation forecast (TAF) for Biggs Army Air Field (Fort Bliss)

Forecast is more than 6 hours old.

Retrieved 2019/12/08 22:03 UTC (12 hours ago):

TAF KBIF 082200Z 0822/1004 26012G20KT 9999 BKN060 OVC100 QNH2996INS BECMG 0908/0909 25012KT 8000 RA BKN010 QNH2996INS BECMG 0919/0920 26012G20KT 8000 -SHRA BKN015 QNH2992INS TX20/0822Z TN06/0912Z